Time;durP1;ratioP1;P1;durP2;ratioP2;P2;SDS_P1;SDS_P2;PMS_P1;PMS_P2;Temp;Humidity;BMP_temperature;BMP_pressure;BME280_temperature;BME280_humidity;BME280_pressure;Samples;Min_cycle;Max_cycle;Signal;HPM_P1;HPM_P2
2021/06/21 00:01:13;;;;;;;4.90;1.85;;;;;;;20.84;65.89;100326.08;1697459;83;21244;-59
2021/06/21 00:04:20;;;;;;;6.03;2.00;;;;;;;20.83;66.16;100329.11;1718658;83;21243;-58
2021/06/21 00:07:25;;;;;;;4.62;1.80;;;;;;;20.77;66.35;100325.37;1718352;83;21231;-57
2021/06/21 00:10:31;;;;;;;5.83;2.10;;;;;;;20.77;66.50;100318.42;1718501;83;21239;-58
2021/06/21 00:13:37;;;;;;;6.85;1.95;;;;;;;20.76;66.64;100325.91;1718316;83;21203;-57
2021/06/21 00:16:43;;;;;;;6.03;2.10;;;;;;;20.76;66.74;100331.48;1718327;83;21263;-58
2021/06/21 00:19:51;;;;;;;7.45;1.80;;;;;;;20.73;66.80;100322.77;1718148;83;21215;-57
2021/06/21 00:23:01;;;;;;;2.67;2.00;;;;;;;20.70;66.93;100331.60;1718691;83;21776;-58
2021/06/21 00:26:07;;;;;;;5.70;2.30;;;;;;;20.65;67.09;100332.33;1718210;81;21243;-58
2021/06/21 00:29:12;;;;;;;3.67;2.33;;;;;;;20.62;67.20;100331.96;1718927;83;21250;-59
2021/06/21 00:32:18;;;;;;;4.50;2.00;;;;;;;20.59;67.39;100333.84;1718329;83;21231;-58
2021/06/21 00:35:23;;;;;;;5.67;2.33;;;;;;;20.58;67.51;100332.16;1718735;83;21243;-58
2021/06/21 00:38:29;;;;;;;6.45;2.67;;;;;;;20.56;67.61;100322.67;1718523;83;21262;-58
2021/06/21 00:41:34;;;;;;;6.58;2.12;;;;;;;20.56;67.63;100316.25;1718537;83;21267;-59
2021/06/21 00:44:39;;;;;;;4.70;2.47;;;;;;;20.56;67.62;100322.67;1718358;83;21199;-58
2021/06/21 00:47:44;;;;;;;3.50;2.17;;;;;;;20.58;67.68;100315.47;1718248;83;21219;-58
2021/06/21 00:50:50;;;;;;;11.45;2.98;;;;;;;20.58;67.56;100312.69;1718554;83;21275;-58
2021/06/21 00:53:55;;;;;;;8.38;2.75;;;;;;;20.56;67.55;100307.91;1718454;83;21200;-59
2021/06/21 00:57:02;;;;;;;6.92;2.37;;;;;;;20.57;67.61;100304.02;1711057;80;21914;-58
2021/06/21 01:00:09;;;;;;;9.83;2.40;;;;;;;20.58;67.53;100301.00;1703381;84;21240;-59
2021/06/21 01:03:14;;;;;;;5.25;2.70;;;;;;;20.58;67.52;100301.00;1703075;84;22142;-58
2021/06/21 01:06:21;;;;;;;11.85;2.50;;;;;;;20.58;67.42;100302.95;1703693;84;21212;-58
2021/06/21 01:09:27;;;;;;;7.22;2.42;;;;;;;20.60;67.38;100303.00;1703126;84;21347;-57
2021/06/21 01:12:57;;;;;;;9.73;2.50;;;;;;;20.62;67.14;100297.19;1703251;84;21406;-58
2021/06/21 01:16:44;;;;;;;6.53;2.67;;;;;;;20.64;66.81;100300.59;1702750;83;21248;-57
2021/06/21 01:20:43;;;;;;;7.85;2.77;;;;;;;20.71;66.70;100305.46;1703569;84;21240;-59
2021/06/21 01:24:29;;;;;;;10.85;2.87;;;;;;;20.78;66.18;100304.80;1703327;84;21355;-58
2021/06/21 01:28:11;;;;;;;11.05;2.83;;;;;;;20.86;65.77;100309.14;1652348;84;21217;-58
2021/06/21 01:31:29;;;;;;;7.25;2.25;;;;;;;20.92;65.22;100309.55;1737833;79;21204;-59
2021/06/21 01:34:37;;;;;;;12.03;3.40;;;;;;;20.97;65.25;100309.16;1737432;81;21343;-58
2021/06/21 01:37:42;;;;;;;9.93;2.42;;;;;;;21.02;65.14;100316.23;1737310;82;21375;-59
2021/06/21 01:40:52;;;;;;;10.35;2.67;;;;;;;21.08;65.02;100310.22;1737187;81;21429;-58
2021/06/21 01:43:59;;;;;;;8.05;2.60;;;;;;;21.10;64.70;100318.64;1737230;82;21216;-57
2021/06/21 01:47:04;;;;;;;12.30;2.80;;;;;;;21.14;64.56;100317.04;1737198;82;22033;-59
2021/06/21 01:50:10;;;;;;;5.85;2.58;;;;;;;21.18;64.33;100321.58;1737261;81;21240;-59
2021/06/21 01:53:22;;;;;;;8.43;2.77;;;;;;;21.19;64.18;100318.55;1737392;82;21379;-59
2021/06/21 01:56:37;;;;;;;14.58;2.65;;;;;;;21.24;64.03;100324.77;1737506;81;21362;-60
2021/06/21 01:59:42;;;;;;;14.38;2.95;;;;;;;21.27;63.91;100319.55;1737383;81;21849;-59
2021/06/21 02:02:49;;;;;;;9.90;2.50;;;;;;;21.31;63.76;100316.56;1737271;82;21706;-59
2021/06/21 02:05:57;;;;;;;12.73;2.80;;;;;;;21.35;63.81;100311.34;1737237;81;21244;-60
2021/06/21 02:09:02;;;;;;;10.23;2.87;;;;;;;21.40;63.63;100307.28;1720143;82;21387;-59
2021/06/21 02:12:07;;;;;;;12.68;2.45;;;;;;;21.43;63.55;100315.14;1737241;82;21433;-58
2021/06/21 02:15:13;;;;;;;10.55;2.67;;;;;;;21.47;63.52;100313.56;1737177;81;21228;-59
2021/06/21 02:18:20;;;;;;;12.30;2.92;;;;;;;21.50;63.22;100318.63;1737229;82;21354;-59
2021/06/21 02:21:27;;;;;;;20.55;3.20;;;;;;;21.53;63.09;100315.34;1737213;81;21378;-59
2021/06/21 02:24:33;;;;;;;15.15;3.10;;;;;;;21.59;62.88;100322.70;1737324;81;21217;-59
2021/06/21 02:27:39;;;;;;;9.45;3.30;;;;;;;21.62;62.96;100324.45;1737180;82;21209;-60
2021/06/21 02:30:44;;;;;;;13.98;3.70;;;;;;;21.66;63.40;100326.20;1738500;79;21233;-59
2021/06/21 02:33:50;;;;;;;14.98;3.47;;;;;;;21.69;63.67;100333.48;1737222;82;21343;-59
2021/06/21 02:36:58;;;;;;;11.57;3.40;;;;;;;21.72;63.37;100322.41;1736029;82;21777;-59
2021/06/21 02:40:04;;;;;;;18.17;4.40;;;;;;;21.75;63.15;100326.98;1736709;81;21370;-59
2021/06/21 02:43:11;;;;;;;20.50;3.83;;;;;;;21.79;62.86;100323.11;1706653;84;21287;-59
2021/06/21 02:46:16;;;;;;;14.93;3.55;;;;;;;21.82;63.11;100319.29;1707270;82;21328;-60
2021/06/21 02:49:21;;;;;;;19.73;3.75;;;;;;;21.87;63.28;100323.57;1707366;82;21237;-58
2021/06/21 02:52:53;;;;;;;27.15;5.05;;;;;;;21.93;62.75;100318.91;1706660;83;21288;-57
2021/06/21 02:56:31;;;;;;;18.37;5.03;;;;;;;21.97;62.41;100324.30;1706664;82;21793;-57
2021/06/21 02:59:37;;;;;;;30.30;4.25;;;;;;;22.04;62.05;100322.21;1707716;82;21276;-56
2021/06/21 03:02:42;;;;;;;26.27;4.03;;;;;;;22.10;62.07;100320.62;1711168;82;21259;-57
2021/06/21 03:05:49;;;;;;;31.23;5.55;;;;;;;22.15;61.86;100324.91;1697600;83;21276;-58
2021/06/21 03:08:55;;;;;;;26.97;4.37;;;;;;;22.20;61.69;100320.81;1684275;84;21354;-58
2021/06/21 03:12:01;;;;;;;31.68;4.87;;;;;;;22.26;61.56;100320.36;1666589;85;21367;-58
2021/06/21 03:15:06;;;;;;;33.67;5.12;;;;;;;22.32;61.63;100324.92;1684259;84;21263;-58
2021/06/21 03:18:13;;;;;;;26.87;5.22;;;;;;;22.36;61.38;100319.12;1684287;85;21265;-57
2021/06/21 03:21:18;;;;;;;35.35;6.00;;;;;;;22.41;61.33;100318.34;1684346;84;21806;-57
2021/06/21 03:24:29;;;;;;;36.35;6.50;;;;;;;22.47;61.36;100326.55;1684390;84;21225;-58
2021/06/21 03:27:44;;;;;;;35.08;6.85;;;;;;;22.52;61.51;100328.06;1667579;85;22016;-57
2021/06/21 03:30:57;;;;;;;38.55;5.83;;;;;;;22.58;61.65;100327.61;1703962;83;21212;-58
2021/06/21 03:34:03;;;;;;;52.90;7.55;;;;;;;22.63;61.37;100332.70;1714270;83;21382;-57
2021/06/21 03:37:08;;;;;;;45.60;7.10;;;;;;;22.68;60.70;100336.13;1714467;83;21339;-57
2021/06/21 03:40:15;;;;;;;34.58;6.92;;;;;;;22.70;60.90;100338.11;1714906;82;21290;-59
2021/06/21 03:43:29;;;;;;;42.62;6.28;;;;;;;22.75;61.15;100342.38;1714530;83;21240;-58
2021/06/21 03:46:37;;;;;;;39.33;7.42;;;;;;;22.80;60.79;100351.66;1714519;82;21550;-57
2021/06/21 03:49:42;;;;;;;52.93;7.83;;;;;;;22.86;60.74;100347.02;1714624;82;21342;-58
2021/06/21 03:52:48;;;;;;;45.65;6.35;;;;;;;22.88;60.54;100350.41;1714750;83;21413;-59
2021/06/21 03:55:54;;;;;;;49.67;6.92;;;;;;;22.89;60.85;100356.27;1715546;82;21231;-58
2021/06/21 03:58:59;;;;;;;61.98;7.28;;;;;;;22.92;60.82;100362.73;1714424;83;21401;-58
2021/06/21 04:02:05;;;;;;;43.13;7.85;;;;;;;22.99;60.91;100364.81;1714545;83;21369;-58
2021/06/21 04:05:12;;;;;;;68.20;8.68;;;;;;;23.06;61.11;100373.29;1714771;82;21346;-57
2021/06/21 04:08:21;;;;;;;61.98;8.93;;;;;;;23.17;61.12;100367.28;1714687;83;21848;-60
2021/06/21 04:11:26;;;;;;;56.10;8.90;;;;;;;23.28;60.62;100364.95;1714330;82;21211;-57
2021/06/21 04:14:31;;;;;;;74.15;9.88;;;;;;;23.39;60.66;100357.00;1714584;82;21338;-58
2021/06/21 04:17:37;;;;;;;75.22;11.97;;;;;;;23.50;60.30;100351.83;1714851;83;21354;-57
2021/06/21 04:20:45;;;;;;;68.02;9.60;;;;;;;23.59;60.49;100352.50;1714628;82;21227;-58
2021/06/21 04:23:50;;;;;;;79.87;10.20;;;;;;;23.70;60.28;100348.44;1715456;83;21231;-57
2021/06/21 04:26:56;;;;;;;69.53;10.05;;;;;;;23.79;60.06;100351.91;1714443;83;21358;-60
2021/06/21 04:30:01;;;;;;;78.42;9.68;;;;;;;23.91;59.69;100356.81;1714820;82;21357;-59
2021/06/21 04:33:06;;;;;;;68.10;10.20;;;;;;;23.98;59.21;100361.66;1716940;79;21358;-57
2021/06/21 04:36:11;;;;;;;88.03;11.18;;;;;;;24.05;59.15;100363.70;1741907;81;21386;-58
2021/06/21 04:39:17;;;;;;;81.63;10.40;;;;;;;24.12;58.37;100357.31;1740170;82;21478;-58
2021/06/21 04:42:25;;;;;;;75.45;10.32;;;;;;;24.19;58.29;100360.76;1740895;81;21204;-57
2021/06/21 04:45:30;;;;;;;81.08;11.57;;;;;;;24.27;58.40;100368.67;1727283;82;21336;-59
2021/06/21 04:48:36;;;;;;;80.00;10.68;;;;;;;24.34;58.13;100370.68;1727532;83;21198;-59
2021/06/21 04:51:41;;;;;;;77.15;10.72;;;;;;;24.41;57.67;100375.52;1739382;82;21437;-60
2021/06/21 04:54:46;;;;;;;78.17;10.23;;;;;;;24.48;57.45;100378.92;1735021;82;21205;-58
2021/06/21 04:57:51;;;;;;;63.25;9.60;;;;;;;24.54;57.34;100372.82;1702339;84;21414;-58
2021/06/21 05:00:56;;;;;;;74.30;10.88;;;;;;;24.63;57.50;100374.86;1735278;82;21228;-57
2021/06/21 05:04:06;;;;;;;67.53;10.28;;;;;;;24.71;56.93;100372.15;1726639;83;21312;-58
2021/06/21 05:07:12;;;;;;;77.60;11.88;;;;;;;24.75;57.00;100369.12;1727544;83;21849;-59
2021/06/21 05:10:18;;;;;;;88.67;11.15;;;;;;;24.80;56.72;100372.78;1738963;82;21411;-58
2021/06/21 05:13:23;;;;;;;73.00;11.30;;;;;;;24.86;56.31;100370.30;1739694;82;21374;-57
2021/06/21 05:16:28;;;;;;;93.40;11.15;;;;;;;24.98;56.15;100377.96;1739746;82;21827;-58
2021/06/21 05:19:35;;;;;;;77.60;11.53;;;;;;;25.05;56.10;100382.75;1726601;83;21655;-58
2021/06/21 05:22:40;;;;;;;83.65;12.33;;;;;;;25.08;56.02;100389.22;1701189;84;21215;-58
2021/06/21 05:25:45;;;;;;;92.50;11.40;;;;;;;25.15;56.06;100390.95;1734946;82;21277;-58
2021/06/21 05:28:50;;;;;;;77.17;10.85;;;;;;;25.27;56.17;100389.63;1701724;84;21172;-57
2021/06/21 05:31:56;;;;;;;87.85;11.73;;;;;;;25.40;55.41;100394.79;1701580;84;21276;-58
2021/06/21 05:35:02;;;;;;;82.25;13.83;;;;;;;25.52;55.49;100396.80;1741316;80;21279;-57
2021/06/21 05:38:09;;;;;;;73.07;12.33;;;;;;;25.66;54.94;100400.78;1745989;82;21301;-58
2021/06/21 05:41:14;;;;;;;86.00;12.58;;;;;;;25.74;54.81;100396.05;1745965;82;21232;-56
2021/06/21 05:44:20;;;;;;;88.60;12.30;;;;;;;25.81;53.90;100390.19;1745654;82;21209;-58
2021/06/21 05:47:26;;;;;;;108.25;12.43;;;;;;;25.88;53.45;100393.02;1745663;82;21347;-58
2021/06/21 05:50:31;;;;;;;81.60;11.78;;;;;;;25.88;52.91;100389.35;1745438;82;21378;-58
2021/06/21 05:53:37;;;;;;;99.15;14.98;;;;;;;25.81;52.37;100396.66;1744024;82;21704;-57
2021/06/21 05:56:42;;;;;;;96.50;14.03;;;;;;;25.80;52.37;100394.95;1745851;82;21394;-59
2021/06/21 05:59:47;;;;;;;97.80;15.00;;;;;;;25.78;51.98;100392.97;1745697;82;21374;-57
2021/06/21 06:02:55;;;;;;;104.47;14.23;;;;;;;25.79;52.33;100398.03;1745998;82;21411;-58
2021/06/21 06:06:02;;;;;;;105.92;16.48;;;;;;;25.83;52.16;100396.37;1745699;82;21221;-58
2021/06/21 06:09:08;;;;;;;95.07;12.98;;;;;;;25.83;51.97;100386.55;1712078;83;21579;-57
2021/06/21 06:12:16;;;;;;;101.18;14.18;;;;;;;25.93;51.90;100384.61;1738113;82;21221;-58
2021/06/21 06:15:23;;;;;;;98.78;15.90;;;;;;;26.05;52.14;100391.42;1732867;82;21419;-57
2021/06/21 06:18:28;;;;;;;119.60;14.50;;;;;;;26.20;51.97;100386.67;1732726;82;21414;-58
2021/06/21 06:21:35;;;;;;;121.55;16.37;;;;;;;26.31;52.27;100393.14;1712888;83;21386;-58
2021/06/21 06:24:41;;;;;;;114.90;15.75;;;;;;;26.39;51.77;100394.00;1713259;83;21375;-59
2021/06/21 06:27:48;;;;;;;103.35;15.70;;;;;;;26.51;51.26;100393.19;1737846;82;21335;-55
2021/06/21 06:30:53;;;;;;;120.42;16.62;;;;;;;26.61;50.98;100390.36;1737514;82;21422;-57
2021/06/21 06:33:59;;;;;;;128.38;15.53;;;;;;;26.65;50.44;100396.30;1737689;82;21249;-58
2021/06/21 06:37:06;;;;;;;116.67;16.57;;;;;;;26.70;50.40;100391.53;1713592;80;21220;-56
2021/06/21 06:40:12;;;;;;;124.70;15.98;;;;;;;26.74;50.84;100395.45;1713911;82;21449;-56
2021/06/21 06:43:17;;;;;;;140.85;18.62;;;;;;;26.80;50.19;100392.09;1714902;83;21288;-57
2021/06/21 06:46:22;;;;;;;140.25;18.32;;;;;;;26.84;49.84;100388.44;1712584;83;21879;-58
2021/06/21 06:49:27;;;;;;;124.90;17.52;;;;;;;26.87;49.92;100381.39;1713571;83;21402;-58
2021/06/21 06:52:33;;;;;;;124.30;16.23;;;;;;;26.95;49.54;100385.04;1712896;83;21919;-57
2021/06/21 06:59:03;;;;;;;126.00;16.60;;;;;;;27.03;50.26;100390.09;1707741;84;21326;-56
2021/06/21 07:02:12;;;;;;;135.10;18.62;;;;;;;27.05;50.32;100394.88;1714352;83;21325;-56
2021/06/21 07:05:19;;;;;;;134.93;17.40;;;;;;;27.13;49.32;100401.33;1714865;82;21204;-57
2021/06/21 07:08:24;;;;;;;131.25;18.52;;;;;;;27.18;49.69;100410.58;1717192;82;21208;-57
2021/06/21 07:11:29;;;;;;;140.75;19.82;;;;;;;27.18;48.81;100406.36;1714361;83;21713;-56
2021/06/21 07:14:35;;;;;;;125.20;17.48;;;;;;;27.19;49.05;100411.43;1714391;82;21239;-56
2021/06/21 07:17:40;;;;;;;128.00;17.82;;;;;;;27.24;48.89;100402.41;1714748;82;21191;-57
2021/06/21 07:20:45;;;;;;;124.67;18.15;;;;;;;27.33;49.56;100400.75;1712523;83;21363;-58
2021/06/21 07:23:52;;;;;;;119.65;17.02;;;;;;;27.44;49.35;100405.77;1709102;84;21190;-57
2021/06/21 07:26:59;;;;;;;116.77;16.15;;;;;;;27.54;49.53;100407.98;1713382;83;21402;-59
2021/06/21 07:30:05;;;;;;;131.57;18.23;;;;;;;27.60;49.68;100406.86;1712086;83;21401;-58
2021/06/21 07:33:12;;;;;;;157.22;21.60;;;;;;;27.68;49.65;100406.27;1708518;84;21227;-57
2021/06/21 07:36:17;;;;;;;148.22;22.05;;;;;;;27.77;48.94;100402.27;1708673;84;21252;-56
2021/06/21 07:39:23;;;;;;;154.72;19.07;;;;;;;27.84;48.80;100417.70;1744003;81;21188;-57
2021/06/21 07:42:28;;;;;;;143.82;19.98;;;;;;;27.86;48.03;100418.82;1740444;82;21359;-58
2021/06/21 07:45:32;;;;;;;124.45;18.37;;;;;;;27.94;48.80;100413.21;1740620;82;21272;-57
2021/06/21 07:48:42;;;;;;;155.65;20.50;;;;;;;28.04;48.75;100415.95;1703283;83;21204;-58
2021/06/21 07:51:49;;;;;;;122.55;19.70;;;;;;;28.14;49.03;100418.72;1673346;85;21544;-58
2021/06/21 07:54:58;;;;;;;142.53;18.67;;;;;;;28.22;48.10;100416.70;1673062;85;21315;-57
2021/06/21 07:58:01;;;;;;;134.87;21.42;;;;;;;28.22;47.59;100423.75;1677646;85;21212;-58
2021/06/21 08:01:06;;;;;;;157.03;20.10;;;;;;;28.22;47.75;100423.75;1748769;82;21233;-57
2021/06/21 08:04:12;;;;;;;161.55;21.07;;;;;;;28.24;48.02;100425.12;1739009;82;21319;-59
2021/06/21 08:07:17;;;;;;;146.02;20.82;;;;;;;28.28;47.74;100426.80;1713779;82;21213;-58
2021/06/21 08:10:23;;;;;;;145.80;20.50;;;;;;;28.35;47.49;100430.16;1714490;83;21276;-59
2021/06/21 08:13:28;;;;;;;158.20;20.75;;;;;;;28.44;47.95;100434.03;1714818;83;21643;-58
2021/06/21 08:16:35;;;;;;;138.57;19.67;;;;;;;28.50;47.61;100435.70;1714940;83;21287;-57
2021/06/21 08:19:41;;;;;;;183.10;20.82;;;;;;;28.50;47.52;100440.78;1713974;83;21228;-57
2021/06/21 08:22:46;;;;;;;141.35;20.43;;;;;;;28.55;47.96;100442.72;1713781;83;21181;-58
2021/06/21 08:25:51;;;;;;;155.22;23.35;;;;;;;28.61;46.90;100438.72;1714210;83;21224;-56
2021/06/21 08:28:57;;;;;;;185.52;24.12;;;;;;;28.62;46.69;100439.02;1714375;83;21186;-58
2021/06/21 08:32:03;;;;;;;163.68;21.62;;;;;;;28.69;47.04;100438.09;1714081;83;21606;-60
2021/06/21 08:35:08;;;;;;;159.40;22.17;;;;;;;28.73;47.09;100434.98;1714374;83;21240;-60
2021/06/21 08:38:13;;;;;;;164.40;22.17;;;;;;;28.82;47.72;100429.83;1719873;81;21241;-60
2021/06/21 08:41:19;;;;;;;155.95;23.05;;;;;;;28.96;47.88;100425.20;1713076;83;21215;-60
2021/06/21 08:44:26;;;;;;;171.45;22.80;;;;;;;29.09;47.02;100429.34;1737486;81;21248;-58
2021/06/21 08:47:32;;;;;;;176.93;22.35;;;;;;;29.12;46.85;100423.95;1737638;82;21220;-56
2021/06/21 08:50:37;;;;;;;155.63;22.37;;;;;;;29.15;46.87;100419.69;1734628;81;21333;-56
2021/06/21 08:53:42;;;;;;;189.70;24.07;;;;;;;29.18;47.23;100423.32;1739349;82;21240;-57
2021/06/21 08:56:47;;;;;;;183.50;23.10;;;;;;;29.27;47.00;100421.56;1737369;82;21230;-56
2021/06/21 08:59:52;;;;;;;198.28;25.30;;;;;;;29.35;46.35;100426.55;1738598;81;21290;-57
2021/06/21 09:02:57;;;;;;;185.03;25.32;;;;;;;29.44;46.60;100431.80;1739667;82;21221;-55
2021/06/21 09:06:03;;;;;;;170.35;24.60;;;;;;;29.49;46.20;100433.72;1738532;81;21216;-57
2021/06/21 09:09:09;;;;;;;162.75;23.40;;;;;;;29.54;45.89;100427.47;1734934;82;21354;-59
2021/06/21 09:12:15;;;;;;;140.32;21.77;;;;;;;29.65;46.81;100427.66;1739875;82;21812;-58
2021/06/21 09:15:22;;;;;;;162.62;21.93;;;;;;;29.79;46.51;100426.34;1737640;81;21311;-59
2021/06/21 09:18:46;;;;;;;143.35;21.62;;;;;;;29.86;46.43;100423.41;1738963;82;21351;-59
2021/06/21 09:21:50;;;;;;;146.37;21.17;;;;;;;29.96;46.98;100424.71;1713093;83;21669;-58
2021/06/21 09:24:55;;;;;;;170.12;22.58;;;;;;;30.06;46.15;100427.41;1712681;83;21406;-59
2021/06/21 09:28:10;;;;;;;151.97;19.75;;;;;;;30.12;47.25;100426.75;1737115;82;21335;-57
2021/06/21 09:31:16;;;;;;;124.47;20.55;;;;;;;30.25;45.59;100437.34;1735386;82;21276;-57
2021/06/21 09:34:24;;;;;;;153.70;21.33;;;;;;;30.25;45.59;100437.34;1736569;82;21222;-58
2021/06/21 09:37:29;;;;;;;151.30;22.82;;;;;;;30.27;45.92;100441.53;1736993;82;21849;-59
2021/06/21 09:40:47;;;;;;;147.95;20.72;;;;;;;30.31;45.08;100434.14;1740546;79;21331;-57
2021/06/21 09:43:55;;;;;;;133.37;18.73;;;;;;;30.25;45.23;100442.43;1739690;82;21347;-56
2021/06/21 09:47:21;;;;;;;141.12;20.08;;;;;;;30.30;45.43;100436.68;1739071;82;21936;-57
2021/06/21 09:50:33;;;;;;;145.20;20.48;;;;;;;30.44;45.25;100427.73;1739431;82;21924;-56
2021/06/21 09:53:38;;;;;;;158.87;19.85;;;;;;;30.50;45.20;100425.66;1740376;82;21379;-57
2021/06/21 09:56:50;;;;;;;132.35;17.85;;;;;;;30.63;45.22;100434.22;1738922;82;21233;-57
2021/06/21 09:59:55;;;;;;;125.23;18.07;;;;;;;30.76;44.99;100433.17;1715917;82;21220;-56
2021/06/21 10:03:28;;;;;;;120.47;18.35;;;;;;;30.79;44.80;100439.66;1705106;83;21188;-57
2021/06/21 10:06:31;;;;;;;118.10;17.45;;;;;;;30.80;44.59;100446.98;1686014;84;21750;-55
2021/06/21 10:09:37;;;;;;;125.65;16.97;;;;;;;30.85;44.60;100437.84;1703511;83;21489;-57
2021/06/21 10:12:42;;;;;;;127.65;16.55;;;;;;;30.92;44.96;100441.11;1667513;84;21228;-56
2021/06/21 10:15:48;;;;;;;141.37;17.10;;;;;;;31.00;44.80;100439.59;1733626;79;21280;-56
2021/06/21 10:18:54;;;;;;;110.85;16.55;;;;;;;31.09;43.98;100441.40;1746779;80;21327;-56
2021/06/21 10:21:59;;;;;;;110.63;15.98;;;;;;;31.12;43.30;100438.52;1747474;80;21836;-57
2021/06/21 10:25:05;;;;;;;111.95;18.45;;;;;;;31.12;43.56;100439.92;1746273;80;21391;-57
2021/06/21 10:28:10;;;;;;;113.85;15.78;;;;;;;31.17;43.78;100441.25;1745464;81;21943;-58
2021/06/21 10:31:15;;;;;;;118.40;16.30;;;;;;;31.26;43.86;100440.23;1737251;80;21339;-56
2021/06/21 10:34:22;;;;;;;114.25;16.87;;;;;;;31.34;43.98;100431.06;1716204;82;21729;-57
2021/06/21 10:37:31;;;;;;;118.33;15.93;;;;;;;31.45;43.50;100431.70;1714473;83;21842;-57
2021/06/21 10:40:37;;;;;;;107.10;16.70;;;;;;;31.54;42.77;100434.09;1706077;79;21231;-58
2021/06/21 10:43:54;;;;;;;117.22;14.60;;;;;;;31.55;42.55;100430.09;1713636;82;21374;-57
2021/06/21 10:47:01;;;;;;;102.58;16.57;;;;;;;31.65;43.13;100442.05;1720298;82;21396;-58
2021/06/21 10:50:24;;;;;;;111.10;16.30;;;;;;;31.78;42.51;100434.14;1714059;82;21381;-59
2021/06/21 10:53:30;;;;;;;106.78;15.25;;;;;;;31.87;42.50;100439.36;1713561;82;21846;-59
2021/06/21 10:56:55;;;;;;;107.80;15.90;;;;;;;31.93;42.81;100434.44;1713867;82;21343;-57
2021/06/21 11:00:24;;;;;;;104.55;15.08;;;;;;;32.00;42.42;100430.02;1712498;82;21382;-59
2021/06/21 11:03:38;;;;;;;92.27;13.03;;;;;;;32.07;41.60;100422.52;1687658;84;21201;-58
2021/06/21 11:06:45;;;;;;;105.22;14.58;;;;;;;32.10;41.87;100428.96;1713013;82;21381;-59
2021/06/21 11:09:57;;;;;;;87.85;13.20;;;;;;;32.23;41.57;100428.11;1709507;82;21184;-58
2021/06/21 11:13:02;;;;;;;89.70;13.90;;;;;;;32.31;41.67;100430.77;1713292;83;21867;-58
2021/06/21 11:16:30;;;;;;;93.50;13.20;;;;;;;32.41;40.94;100437.09;1695135;84;21229;-56
2021/06/21 11:19:41;;;;;;;81.30;12.18;;;;;;;32.44;40.46;100435.03;1715267;82;21359;-58
2021/06/21 11:22:50;;;;;;;99.60;13.45;;;;;;;32.51;40.21;100439.66;1711035;84;21204;-60
2021/06/21 11:25:58;;;;;;;86.90;12.50;;;;;;;32.62;40.48;100438.27;1714547;83;21989;-57
2021/06/21 11:29:04;;;;;;;108.70;13.10;;;;;;;32.69;40.58;100430.73;1706745;83;21373;-58
2021/06/21 11:32:11;;;;;;;84.37;11.63;;;;;;;32.74;40.36;100428.62;1714411;83;22098;-58
2021/06/21 11:35:20;;;;;;;85.85;11.57;;;;;;;32.81;40.31;100419.08;1716531;82;21393;-57
2021/06/21 11:38:44;;;;;;;81.42;11.25;;;;;;;32.90;39.82;100422.87;1705942;82;21421;-58
2021/06/21 11:42:07;;;;;;;66.77;11.10;;;;;;;32.92;38.65;100429.03;1731892;79;21346;-57
2021/06/21 11:45:14;;;;;;;69.03;11.10;;;;;;;32.81;38.98;100429.00;1719399;82;21339;-58
2021/06/21 11:48:21;;;;;;;57.40;10.30;;;;;;;32.87;39.25;100429.12;1682270;85;21306;-58
2021/06/21 11:51:27;;;;;;;63.17;8.90;;;;;;;32.94;39.34;100428.71;1661698;85;21291;-57
2021/06/21 11:54:37;;;;;;;58.90;10.40;;;;;;;32.93;38.11;100428.47;1684861;84;21282;-57
2021/06/21 11:57:43;;;;;;;52.83;9.00;;;;;;;32.81;37.93;100421.91;1713021;83;21331;-59
2021/06/21 12:00:49;;;;;;;53.73;7.85;;;;;;;32.74;38.38;100420.69;1712799;82;21759;-57
2021/06/21 12:03:56;;;;;;;60.05;8.88;;;;;;;32.81;38.47;100413.40;1704728;83;21268;-59
2021/06/21 12:07:02;;;;;;;44.58;7.67;;;;;;;32.77;36.68;100420.89;1708109;83;21855;-59
2021/06/21 12:10:10;;;;;;;52.38;7.80;;;;;;;32.71;36.74;100413.67;1711773;83;21239;-57
2021/06/21 12:13:16;;;;;;;39.83;6.50;;;;;;;32.67;36.52;100413.19;1685150;83;21868;-57
2021/06/21 12:16:24;;;;;;;35.15;6.70;;;;;;;32.67;36.76;100414.05;1684635;84;21780;-58
2021/06/21 12:19:31;;;;;;;38.65;6.17;;;;;;;32.66;36.40;100403.02;1684441;84;21342;-57
2021/06/21 12:22:36;;;;;;;46.92;8.48;;;;;;;32.72;36.64;100410.23;1687989;84;21369;-59
2021/06/21 12:25:46;;;;;;;38.63;6.42;;;;;;;32.79;37.49;100410.04;1684390;84;21875;-58
2021/06/21 12:28:51;;;;;;;37.60;6.47;;;;;;;32.88;37.20;100408.70;1680454;84;21207;-59
2021/06/21 12:32:09;;;;;;;41.35;6.50;;;;;;;32.97;36.44;100412.45;1680736;84;21359;-58
2021/06/21 12:35:16;;;;;;;40.08;6.50;;;;;;;32.98;36.59;100414.97;1686123;83;21231;-59
2021/06/21 12:38:22;;;;;;;41.18;5.65;;;;;;;32.95;35.70;100403.45;1677562;85;21203;-58
2021/06/21 12:41:30;;;;;;;37.45;6.33;;;;;;;32.94;36.59;100409.70;1685996;83;21362;-58
2021/06/21 12:44:35;;;;;;;35.75;5.75;;;;;;;32.95;36.21;100409.94;1692122;80;21242;-58
2021/06/21 12:47:41;;;;;;;23.65;4.95;;;;;;;32.94;36.30;100408.85;1710350;83;21301;-57
2021/06/21 12:50:46;;;;;;;25.85;4.55;;;;;;;32.97;36.63;100416.71;1684440;84;21223;-60
2021/06/21 12:53:57;;;;;;;25.77;4.87;;;;;;;33.00;36.53;100418.33;1715625;83;21817;-58
2021/06/21 12:57:04;;;;;;;31.87;4.97;;;;;;;33.05;35.85;100415.94;1717555;82;21722;-57
2021/06/21 13:00:09;;;;;;;27.52;5.50;;;;;;;33.00;35.75;100416.91;1718481;82;21235;-58
2021/06/21 13:03:24;;;;;;;27.62;5.03;;;;;;;32.98;35.83;100422.06;1716665;83;21406;-57
2021/06/21 13:06:44;;;;;;;22.20;4.12;;;;;;;32.93;34.63;100419.38;1717037;82;21212;-57
2021/06/21 13:09:55;;;;;;;28.07;4.92;;;;;;;32.87;35.23;100419.80;1716681;82;21228;-58
2021/06/21 13:13:03;;;;;;;24.82;4.62;;;;;;;32.81;35.55;100426.77;1717414;82;21362;-58
2021/06/21 13:16:07;;;;;;;26.80;3.98;;;;;;;32.74;35.29;100422.95;1692288;83;21291;-57
2021/06/21 13:19:26;;;;;;;27.35;4.30;;;;;;;32.71;36.07;100419.34;1682136;83;21331;-59
2021/06/21 13:22:47;;;;;;;31.52;4.87;;;;;;;32.70;36.16;100426.16;1707033;84;21324;-58
2021/06/21 13:25:58;;;;;;;27.75;4.92;;;;;;;32.71;35.71;100422.19;1707034;82;21233;-57
2021/06/21 13:29:02;;;;;;;27.40;4.60;;;;;;;32.70;36.17;100426.16;1717452;83;21240;-57
2021/06/21 13:32:12;;;;;;;24.32;3.77;;;;;;;32.66;35.34;100422.30;1718415;82;21323;-56
2021/06/21 13:35:20;;;;;;;20.62;3.98;;;;;;;32.58;36.02;100425.90;1718248;82;21362;-57
2021/06/21 13:38:31;;;;;;;29.87;4.50;;;;;;;32.53;36.21;100428.85;1719530;82;21256;-58
2021/06/21 13:41:36;;;;;;;26.07;5.03;;;;;;;32.48;36.01;100421.88;1692392;83;21247;-58
2021/06/21 13:44:42;;;;;;;22.32;4.47;;;;;;;32.48;36.35;100421.03;1713097;80;21285;-58
2021/06/21 13:47:55;;;;;;;20.97;3.67;;;;;;;32.50;37.22;100415.31;1717406;83;21215;-58
2021/06/21 13:51:02;;;;;;;26.60;4.62;;;;;;;32.54;36.99;100416.94;1715402;82;21405;-58
2021/06/21 13:54:15;;;;;;;28.47;3.92;;;;;;;32.54;35.42;100409.86;1672735;85;21206;-58
2021/06/21 13:57:21;;;;;;;21.27;4.28;;;;;;;32.47;34.79;100412.28;1702209;84;21224;-57
2021/06/21 14:00:44;;;;;;;24.47;4.22;;;;;;;32.41;35.23;100407.33;1654762;86;21435;-60
2021/06/21 14:03:56;;;;;;;29.55;4.17;;;;;;;32.38;35.14;100409.95;1669772;85;21217;-60
2021/06/21 14:07:02;;;;;;;28.20;4.28;;;;;;;32.37;35.47;100402.02;1715576;82;21207;-60
2021/06/21 14:10:09;;;;;;;35.78;4.87;;;;;;;32.35;35.54;100402.87;1714753;82;21192;-57
2021/06/21 14:13:17;;;;;;;31.45;4.25;;;;;;;32.36;36.08;100401.73;1714567;83;21251;-57
2021/06/21 14:16:26;;;;;;;23.85;4.67;;;;;;;32.36;36.17;100408.82;1715475;82;21219;-59
2021/06/21 14:19:32;;;;;;;22.20;4.00;;;;;;;32.33;35.68;100396.70;1714705;82;21319;-59
2021/06/21 14:22:38;;;;;;;28.77;4.72;;;;;;;32.32;36.18;100414.03;1722366;83;21259;-60